createdAt,value
2022-09-03T00:02:52.024Z,68.91
2022-09-03T00:05:48.534Z,68.50
2022-09-03T00:08:36.694Z,68.58
2022-09-03T00:11:27.183Z,68.20
2022-09-03T00:14:06.096Z,68.76
2022-09-03T00:16:49.097Z,68.74
2022-09-03T00:19:24.205Z,68.70
2022-09-03T00:21:57.399Z,68.71
2022-09-03T00:24:28.268Z,68.89
2022-09-03T00:27:00.040Z,68.96
2022-09-03T00:29:37.876Z,68.97
2022-09-03T00:32:27.791Z,69.52
2022-09-03T00:35:01.063Z,69.45
2022-09-03T00:37:28.710Z,69.50
2022-09-03T00:40:00.726Z,69.19
2022-09-03T00:42:39.943Z,69.58
2022-09-03T00:45:25.511Z,68.48
2022-09-03T00:48:19.858Z,69.20
2022-09-03T00:51:07.553Z,69.72
2022-09-03T00:54:00.048Z,69.49
2022-09-03T00:56:39.595Z,69.77
2022-09-03T00:59:35.032Z,70.29
2022-09-03T01:02:35.394Z,69.95
2022-09-03T01:05:15.004Z,69.92
2022-09-03T01:08:11.824Z,70.21
2022-09-03T01:11:01.443Z,70.30
2022-09-03T01:13:27.810Z,70.09
2022-09-03T01:16:22.657Z,70.49
2022-09-03T01:19:13.853Z,70.41
2022-09-03T01:22:20.149Z,69.87
2022-09-03T01:25:32.058Z,70.17
2022-09-03T01:28:32.819Z,70.50
2022-09-03T01:31:16.509Z,71.16
2022-09-03T01:33:46.358Z,70.75
2022-09-03T01:36:45.701Z,71.05
2022-09-03T01:39:22.177Z,70.56
2022-09-03T01:42:15.805Z,70.94
2022-09-03T01:45:29.895Z,70.55
2022-09-03T01:48:21.573Z,71.47
2022-09-03T01:51:03.376Z,71.76
2022-09-03T01:54:07.095Z,71.29
2022-09-03T01:57:35.335Z,70.77
2022-09-03T02:00:11.805Z,71.67
2022-09-03T02:02:39.109Z,72.14
2022-09-03T02:05:10.538Z,71.44
2022-09-03T02:07:40.532Z,72.09
2022-09-03T02:10:12.196Z,72.61
2022-09-03T02:12:43.102Z,72.10
2022-09-03T02:15:17.337Z,71.81
2022-09-03T02:17:48.844Z,72.06
2022-09-03T02:20:20.149Z,72.64
2022-09-03T02:22:48.665Z,72.60
2022-09-03T02:25:16.772Z,72.99
2022-09-03T02:27:44.573Z,73.70
2022-09-03T02:30:11.711Z,73.30
2022-09-03T02:32:38.154Z,73.75
2022-09-03T02:35:04.939Z,73.75
2022-09-03T02:37:31.391Z,74.31
2022-09-03T02:39:57.923Z,74.31
2022-09-03T02:42:24.393Z,74.21
2022-09-03T02:44:57.507Z,74.86
2022-09-03T02:47:31.193Z,75.79
2022-09-03T02:49:57.632Z,75.27
2022-09-03T02:52:24.093Z,76.21
2022-09-03T02:54:50.557Z,76.52
2022-09-03T02:57:17.339Z,75.56
2022-09-03T02:59:54.006Z,76.85
2022-09-03T03:02:20.465Z,75.82
2022-09-03T03:04:46.918Z,76.48
2022-09-03T03:07:13.343Z,77.39
2022-09-03T03:09:39.791Z,75.88
2022-09-03T03:12:07.186Z,76.33
2022-09-03T03:14:33.619Z,76.50
2022-09-03T03:17:00.189Z,76.38
2022-09-03T03:19:26.668Z,77.04
2022-09-03T03:21:53.146Z,77.06
2022-09-03T03:24:19.787Z,76.29
2022-09-03T03:26:46.207Z,76.51
2022-09-03T03:29:17.850Z,76.15
2022-09-03T03:31:44.296Z,76.72
2022-09-03T03:34:10.743Z,76.67
2022-09-03T03:36:37.751Z,76.49
2022-09-03T03:39:04.369Z,77.43
2022-09-03T03:41:33.104Z,76.83
2022-09-03T03:44:02.021Z,76.70
2022-09-03T03:46:34.154Z,76.62
2022-09-03T03:49:01.256Z,76.70
2022-09-03T03:51:28.201Z,76.92
2022-09-03T03:53:56.745Z,76.02
2022-09-03T03:56:24.327Z,76.93
2022-09-03T03:58:51.611Z,77.13
2022-09-03T04:01:20.205Z,77.01
2022-09-03T04:03:47.374Z,77.13
2022-09-03T04:06:16.971Z,77.02
2022-09-03T04:08:44.830Z,76.83
2022-09-03T04:11:16.437Z,77.07
2022-09-03T04:13:44.652Z,76.89
2022-09-03T04:16:12.195Z,76.62
2022-09-03T04:18:39.687Z,76.81
2022-09-03T04:21:11.716Z,76.67
2022-09-03T04:23:43.995Z,76.44
2022-09-03T04:26:12.779Z,76.28
2022-09-03T04:28:39.543Z,76.38
2022-09-03T04:31:08.365Z,76.14
2022-09-03T04:33:38.048Z,76.09
2022-09-03T04:36:20.426Z,75.46
2022-09-03T04:38:48.777Z,75.84
2022-09-03T04:41:20.839Z,75.64
2022-09-03T04:43:51.602Z,75.66
2022-09-03T04:46:19.213Z,75.47
2022-09-03T04:48:51.049Z,75.23
2022-09-03T04:51:20.979Z,75.29
2022-09-03T04:53:49.926Z,75.20
2022-09-03T04:56:18.613Z,74.86
2022-09-03T04:58:46.155Z,75.22
2022-09-03T05:01:17.861Z,74.61
2022-09-03T05:03:45.410Z,74.90
2022-09-03T05:06:13.039Z,75.22
2022-09-03T05:08:40.330Z,73.83
2022-09-03T05:11:07.983Z,72.83
2022-09-03T05:13:35.723Z,73.18
2022-09-03T05:16:04.158Z,73.32
2022-09-03T05:18:30.668Z,72.94
2022-09-03T05:21:01.190Z,73.30
2022-09-03T05:23:29.012Z,73.65
2022-09-03T05:25:58.283Z,73.35
2022-09-03T05:28:29.995Z,72.78
2022-09-03T05:31:02.021Z,73.60
2022-09-03T05:33:28.486Z,72.88
2022-09-03T05:36:01.093Z,73.21
2022-09-03T05:38:27.652Z,73.57
2022-09-03T05:40:54.111Z,73.26
2022-09-03T05:43:21.504Z,73.71
2022-09-03T05:45:48.974Z,73.61
2022-09-03T05:48:16.214Z,73.73
2022-09-03T05:50:42.622Z,73.94
2022-09-03T05:53:09.051Z,73.80
2022-09-03T05:55:35.480Z,74.15
2022-09-03T05:58:01.930Z,74.54
2022-09-03T06:00:28.496Z,74.38
2022-09-03T06:02:55.000Z,74.35
2022-09-03T06:05:21.528Z,74.76
2022-09-03T06:07:49.562Z,74.44
2022-09-03T06:10:19.435Z,74.57
2022-09-03T06:12:51.669Z,74.69
2022-09-03T06:15:18.105Z,74.50
2022-09-03T06:17:44.531Z,74.67
2022-09-03T06:20:11.003Z,74.73
2022-09-03T06:22:37.444Z,75.56
2022-09-03T06:25:04.148Z,75.15
2022-09-03T06:27:31.320Z,75.25
2022-09-03T06:29:59.008Z,75.74
2022-09-03T06:32:25.438Z,75.22
2022-09-03T06:34:51.879Z,75.37
2022-09-03T06:37:18.326Z,74.62
2022-09-03T06:39:44.827Z,74.95
2022-09-03T06:42:12.262Z,75.08
2022-09-03T06:44:41.792Z,75.33
2022-09-03T06:47:08.262Z,75.37
2022-09-03T06:49:34.671Z,75.34
2022-09-03T06:52:01.098Z,75.15
2022-09-03T06:54:27.546Z,75.51
2022-09-03T06:56:54.007Z,75.55
2022-09-03T06:59:20.527Z,75.03
2022-09-03T07:01:47.115Z,75.05
2022-09-03T07:04:16.681Z,75.22
2022-09-03T07:06:44.231Z,75.20
2022-09-03T07:09:12.175Z,75.13
2022-09-03T07:11:46.648Z,74.15
2022-09-03T07:14:14.152Z,74.24
2022-09-03T07:16:42.016Z,74.24
2022-09-03T07:19:09.192Z,74.64
2022-09-03T07:21:37.088Z,74.09
2022-09-03T07:24:05.538Z,74.14
2022-09-03T07:26:43.735Z,74.53
2022-09-03T07:29:15.721Z,73.47
2022-09-03T07:31:43.488Z,73.65
2022-09-03T07:34:12.619Z,73.17
2022-09-03T07:36:42.774Z,73.28
2022-09-03T07:39:13.954Z,73.51
2022-09-03T07:41:45.753Z,72.57
2022-09-03T07:44:19.249Z,72.24
2022-09-03T07:46:47.671Z,72.88
2022-09-03T07:49:14.329Z,72.83
2022-09-03T07:51:40.777Z,72.55
2022-09-03T07:54:10.709Z,73.30
2022-09-03T07:56:38.958Z,72.27
2022-09-03T07:59:05.951Z,71.87
2022-09-03T08:01:33.580Z,71.07
2022-09-03T08:04:01.703Z,70.69
2022-09-03T08:06:29.978Z,70.99
2022-09-03T08:09:03.718Z,69.95
2022-09-03T08:11:31.493Z,70.40
2022-09-03T08:14:06.280Z,70.09
2022-09-03T08:16:38.189Z,69.34
2022-09-03T08:19:05.291Z,68.27
2022-09-03T08:21:31.946Z,68.13
2022-09-03T08:24:04.325Z,67.62
2022-09-03T08:26:32.891Z,67.56
2022-09-03T08:28:59.952Z,66.33
2022-09-03T08:31:28.250Z,67.27
2022-09-03T08:33:57.124Z,66.08
2022-09-03T08:36:25.333Z,64.65
2022-09-03T08:38:55.157Z,64.50
2022-09-03T08:41:46.400Z,63.47
2022-09-03T08:44:19.343Z,63.00
2022-09-03T08:47:23.361Z,60.78
2022-09-03T08:50:12.615Z,60.53
2022-09-03T08:53:09.701Z,60.76
2022-09-03T08:55:50.578Z,60.10
2022-09-03T08:58:19.680Z,58.55
2022-09-03T09:01:01.479Z,57.60
2022-09-03T09:03:31.803Z,56.82
2022-09-03T09:06:07.979Z,56.61
2022-09-03T09:08:56.445Z,55.59
2022-09-03T09:11:34.035Z,54.23
2022-09-03T09:14:14.532Z,55.25
2022-09-03T09:17:02.045Z,53.45
2022-09-03T09:19:42.025Z,52.62
2022-09-03T09:22:24.010Z,52.43
2022-09-03T09:24:53.277Z,52.79
2022-09-03T09:27:19.823Z,52.44
2022-09-03T09:29:50.975Z,52.46
2022-09-03T09:32:20.229Z,52.69
2022-09-03T09:34:51.967Z,50.14
2022-09-03T09:37:19.073Z,49.22
2022-09-03T09:39:57.721Z,49.24
2022-09-03T09:42:24.769Z,49.94
2022-09-03T09:44:51.426Z,50.16
2022-09-03T09:48:10.823Z,50.63
2022-09-03T09:50:37.255Z,50.32
2022-09-03T09:53:14.334Z,51.21
2022-09-03T09:55:58.201Z,50.79
2022-09-03T09:58:28.368Z,50.33
2022-09-03T10:01:04.016Z,49.68
2022-09-03T10:03:37.434Z,46.96
2022-09-03T10:06:28.388Z,45.44
2022-09-03T10:09:15.808Z,46.35
2022-09-03T10:11:52.203Z,45.08
2022-09-03T10:14:32.569Z,45.59
2022-09-03T10:17:10.614Z,45.82
2022-09-03T10:20:08.625Z,46.04
2022-09-03T10:22:48.360Z,45.34
2022-09-03T10:25:39.062Z,44.58
2022-09-03T10:28:07.615Z,44.44
2022-09-03T10:30:47.617Z,45.21
2022-09-03T10:33:26.113Z,41.95
2022-09-03T10:36:03.661Z,43.20
2022-09-03T10:38:34.814Z,43.84
2022-09-03T10:41:32.002Z,43.78
2022-09-03T10:44:35.534Z,43.35
2022-09-03T10:47:18.547Z,42.90
2022-09-03T10:50:03.754Z,42.57
2022-09-03T10:52:52.977Z,42.85
2022-09-03T10:55:42.388Z,44.03
2022-09-03T10:58:41.380Z,43.82
2022-09-03T11:01:22.186Z,43.52
2022-09-03T11:03:53.293Z,44.33
2022-09-03T11:06:30.297Z,44.74
2022-09-03T11:09:11.726Z,45.21
2022-09-03T11:11:45.887Z,45.89
2022-09-03T11:14:27.661Z,45.11
2022-09-03T11:17:06.419Z,45.04
2022-09-03T11:19:48.211Z,45.21
2022-09-03T11:22:20.974Z,45.00
2022-09-03T11:24:54.242Z,45.21
2022-09-03T11:27:40.890Z,45.38
2022-09-03T11:30:10.263Z,45.51
2022-09-03T11:32:55.768Z,45.38
2022-09-03T11:35:29.101Z,43.49
2022-09-03T11:37:59.867Z,43.75
2022-09-03T11:40:32.433Z,44.55
2022-09-03T11:43:24.102Z,44.38
2022-09-03T11:46:25.021Z,44.51
2022-09-03T11:48:55.406Z,44.18
2022-09-03T11:51:30.733Z,43.81
2022-09-03T11:54:23.814Z,42.48
2022-09-03T11:56:50.639Z,42.63
2022-09-03T11:59:23.395Z,42.76
2022-09-03T12:01:59.060Z,42.96
2022-09-03T12:08:21.185Z,43.36
2022-09-03T12:11:15.228Z,43.32
2022-09-03T12:14:19.690Z,43.27
2022-09-03T12:16:59.623Z,43.11
2022-09-03T12:19:35.928Z,42.22
2022-09-03T12:22:05.424Z,41.56
2022-09-03T12:24:37.703Z,41.72
2022-09-03T12:27:05.341Z,42.27
2022-09-03T12:29:31.954Z,41.97
2022-09-03T12:32:07.546Z,41.58
2022-09-03T12:34:34.123Z,42.20
2022-09-03T12:37:00.568Z,41.66
2022-09-03T12:42:24.600Z,41.64
2022-09-03T12:44:51.033Z,41.71
2022-09-03T12:47:37.432Z,41.31
2022-09-03T12:50:17.042Z,41.10
2022-09-03T12:52:51.561Z,41.66
2022-09-03T12:55:34.043Z,41.39
2022-09-03T12:58:23.941Z,41.38
2022-09-03T13:00:57.553Z,41.85
2022-09-03T13:03:34.428Z,42.01
2022-09-03T13:06:07.488Z,41.96
2022-09-03T13:08:44.695Z,42.34
2022-09-03T13:11:16.492Z,41.87
2022-09-03T13:13:53.911Z,41.42
2022-09-03T13:16:44.261Z,42.30
2022-09-03T13:19:37.023Z,42.04
2022-09-03T13:22:33.130Z,40.65
2022-09-03T13:25:09.925Z,40.99
2022-09-03T13:27:52.717Z,41.12
2022-09-03T13:30:31.086Z,40.64
2022-09-03T13:33:22.131Z,41.22
2022-09-03T13:36:14.856Z,41.35
2022-09-03T13:38:59.099Z,41.15
2022-09-03T13:41:36.380Z,42.00
2022-09-03T13:44:17.936Z,41.34
2022-09-03T13:46:57.553Z,41.23
2022-09-03T13:49:55.800Z,41.85
2022-09-03T13:52:45.098Z,42.37
2022-09-03T13:55:33.483Z,42.18
2022-09-03T13:58:30.647Z,42.71
2022-09-03T14:00:58.083Z,42.06
2022-09-03T14:03:49.007Z,42.45
2022-09-03T14:06:26.932Z,42.29
2022-09-03T14:09:09.680Z,42.79
2022-09-03T14:11:49.405Z,42.36
2022-09-03T14:14:37.435Z,41.74
2022-09-03T14:17:19.017Z,41.21
2022-09-03T14:20:02.356Z,41.53
2022-09-03T14:22:43.660Z,41.48
2022-09-03T14:25:15.733Z,41.85
2022-09-03T14:27:42.579Z,41.46
2022-09-03T14:30:27.418Z,40.97
2022-09-03T14:33:16.954Z,40.03
2022-09-03T14:36:07.316Z,40.11
2022-09-03T14:39:03.333Z,40.43
2022-09-03T14:41:51.562Z,40.50
2022-09-03T14:44:45.063Z,40.49
2022-09-03T14:47:28.454Z,40.77
2022-09-03T14:50:06.456Z,39.90
2022-09-03T14:52:58.084Z,40.37
2022-09-03T14:55:58.295Z,40.80
2022-09-03T14:58:37.691Z,41.37
2022-09-03T15:01:28.864Z,40.73
2022-09-03T15:04:19.543Z,40.56
2022-09-03T15:07:13.506Z,41.23
2022-09-03T15:09:54.519Z,41.32
2022-09-03T15:12:40.452Z,41.22
2022-09-03T15:15:13.591Z,40.31
2022-09-03T15:18:05.059Z,40.84
2022-09-03T15:20:50.347Z,40.39
2022-09-03T15:23:24.850Z,40.36
2022-09-03T15:26:10.883Z,40.12
2022-09-03T15:28:54.570Z,40.67
2022-09-03T15:31:44.438Z,40.35
2022-09-03T15:34:32.303Z,39.69
2022-09-03T15:37:07.294Z,39.71
2022-09-03T15:39:36.973Z,40.02
2022-09-03T15:42:27.672Z,40.02
2022-09-03T15:45:00.920Z,39.95
2022-09-03T15:47:51.683Z,39.77
2022-09-03T15:50:35.191Z,39.83
2022-09-03T15:53:24.352Z,40.26
2022-09-03T15:56:13.677Z,40.03
2022-09-03T15:59:03.178Z,40.36
2022-09-03T16:01:54.169Z,40.44
2022-09-03T16:04:40.726Z,40.64
2022-09-03T16:07:20.850Z,40.94
2022-09-03T16:10:24.260Z,40.68
2022-09-03T16:13:05.770Z,40.13
2022-09-03T16:15:41.323Z,40.76
2022-09-03T16:18:10.436Z,40.50
2022-09-03T16:20:42.985Z,40.52
2022-09-03T16:23:20.527Z,40.99
2022-09-03T16:26:03.937Z,40.82
2022-09-03T16:28:50.360Z,41.43
2022-09-03T16:31:57.872Z,41.86
2022-09-03T16:34:54.533Z,42.10
2022-09-03T16:37:48.201Z,41.42
2022-09-03T16:40:36.518Z,41.56
2022-09-03T16:43:40.282Z,41.88
2022-09-03T16:46:22.262Z,42.11
2022-09-03T16:49:07.359Z,41.77
2022-09-03T16:51:37.607Z,42.20
2022-09-03T16:54:30.779Z,42.28
2022-09-03T16:57:21.915Z,42.59
2022-09-03T16:59:51.028Z,42.96
2022-09-03T17:02:41.498Z,42.88
2022-09-03T17:05:21.407Z,43.08
2022-09-03T17:08:06.164Z,43.43
2022-09-03T17:11:03.062Z,44.06
2022-09-03T17:13:55.186Z,44.31
2022-09-03T17:16:57.448Z,44.64
2022-09-03T17:19:55.978Z,44.58
2022-09-03T17:22:42.941Z,44.55
2022-09-03T17:25:29.411Z,44.85
2022-09-03T17:28:10.167Z,44.48
2022-09-03T17:30:49.240Z,44.92
2022-09-03T17:33:35.834Z,44.90
2022-09-03T17:36:15.495Z,45.02
2022-09-03T17:39:02.107Z,45.35
2022-09-03T17:41:44.499Z,45.61
2022-09-03T17:44:28.631Z,45.56
2022-09-03T17:47:37.912Z,45.80
2022-09-03T17:50:16.910Z,46.16
2022-09-03T17:52:49.534Z,46.14
2022-09-03T17:55:34.218Z,46.41
2022-09-03T17:58:17.000Z,46.70
2022-09-03T18:01:05.193Z,46.61
2022-09-03T18:03:48.989Z,47.02
2022-09-03T18:06:33.604Z,47.62
2022-09-03T18:09:10.167Z,48.22
2022-09-03T18:11:41.221Z,48.29
2022-09-03T18:14:43.202Z,48.45
2022-09-03T18:17:20.569Z,48.48
2022-09-03T18:20:12.661Z,48.78
2022-09-03T18:23:08.792Z,48.96
2022-09-03T18:25:57.195Z,49.05
2022-09-03T18:28:53.734Z,49.51
2022-09-03T18:31:38.993Z,49.50
2022-09-03T18:34:23.752Z,49.49
2022-09-03T18:37:09.419Z,49.87
2022-09-03T18:39:54.341Z,50.60
2022-09-03T18:43:15.129Z,51.15
2022-09-03T18:49:45.708Z,52.47
2022-09-03T18:52:45.729Z,52.55
2022-09-03T18:56:04.295Z,51.76
2022-09-03T18:59:06.674Z,51.87
2022-09-03T19:01:55.216Z,51.95
2022-09-03T19:05:17.613Z,52.40
2022-09-03T19:08:36.305Z,52.37
2022-09-03T19:11:55.849Z,53.08
2022-09-03T19:14:58.364Z,52.77
2022-09-03T19:18:12.414Z,52.45
2022-09-03T19:21:00.531Z,51.94
2022-09-03T19:23:45.744Z,51.58
2022-09-03T19:26:45.959Z,51.76
2022-09-03T19:29:44.440Z,51.46
2022-09-03T19:32:37.804Z,51.28
2022-09-03T19:35:36.310Z,50.75
2022-09-03T19:39:15.812Z,51.03
2022-09-03T19:42:11.429Z,50.99
2022-09-03T19:45:26.112Z,50.82
2022-09-03T19:48:27.770Z,50.93
2022-09-03T19:51:20.936Z,50.81
2022-09-03T19:54:07.062Z,50.91
2022-09-03T19:56:55.453Z,50.88
2022-09-03T19:59:45.051Z,50.86
2022-09-03T20:02:30.302Z,51.35
2022-09-03T20:05:18.178Z,51.06
2022-09-03T20:08:06.300Z,51.02
2022-09-03T20:10:34.838Z,50.96
2022-09-03T20:13:10.111Z,51.03
2022-09-03T20:16:00.725Z,50.80
2022-09-03T20:18:48.730Z,51.06
2022-09-03T20:21:33.315Z,50.90
2022-09-03T20:24:21.459Z,51.31
2022-09-03T20:27:28.908Z,51.22
2022-09-03T20:30:01.816Z,51.62
2022-09-03T20:33:05.511Z,50.87
2022-09-03T20:35:45.532Z,51.45
2022-09-03T20:38:30.400Z,51.17
2022-09-03T20:41:23.208Z,51.13
2022-09-03T20:44:10.882Z,51.10
2022-09-03T20:46:43.004Z,50.96
2022-09-03T20:49:31.372Z,50.84
2022-09-03T20:52:07.255Z,50.68
2022-09-03T20:54:42.519Z,50.60
2022-09-03T20:57:22.131Z,50.69
2022-09-03T20:59:59.286Z,50.71
2022-09-03T21:02:37.498Z,50.81
2022-09-03T21:05:09.816Z,50.37
2022-09-03T21:08:03.616Z,50.89
2022-09-03T21:11:00.854Z,50.78
2022-09-03T21:13:42.231Z,50.74
2022-09-03T21:16:36.874Z,50.71
2022-09-03T21:19:29.690Z,50.79
2022-09-03T21:22:04.654Z,50.78
2022-09-03T21:24:39.822Z,50.94
2022-09-03T21:27:16.466Z,51.19
2022-09-03T21:30:06.410Z,51.04
2022-09-03T21:32:38.916Z,51.18
2022-09-03T21:35:13.457Z,51.03
2022-09-03T21:37:44.947Z,51.14
2022-09-03T21:40:13.242Z,51.54
2022-09-03T21:42:59.675Z,51.15
2022-09-03T21:45:40.357Z,51.16
2022-09-03T21:48:18.176Z,51.42
2022-09-03T21:50:55.515Z,51.05
2022-09-03T21:53:54.803Z,51.10
2022-09-03T21:56:39.342Z,51.24
2022-09-03T21:59:17.118Z,51.62
2022-09-03T22:02:21.795Z,51.46
2022-09-03T22:04:49.733Z,51.56
2022-09-03T22:07:46.912Z,52.08
2022-09-03T22:10:57.478Z,51.65
2022-09-03T22:13:32.038Z,51.84
2022-09-03T22:16:26.191Z,51.70
2022-09-03T22:18:54.137Z,52.00
2022-09-03T22:21:32.572Z,52.22
2022-09-03T22:24:23.426Z,52.12
2022-09-03T22:26:57.922Z,52.37
2022-09-03T22:29:24.273Z,52.46
2022-09-03T22:32:23.108Z,52.60
2022-09-03T22:35:25.665Z,52.79
2022-09-03T22:38:28.506Z,52.73
2022-09-03T22:41:20.122Z,52.95
2022-09-03T22:44:19.586Z,52.60
2022-09-03T22:46:48.965Z,53.42
2022-09-03T22:49:35.802Z,53.25
2022-09-03T22:52:28.830Z,53.26
2022-09-03T22:55:15.599Z,53.28
2022-09-03T22:57:51.763Z,53.26
2022-09-03T23:00:18.936Z,53.75
2022-09-03T23:02:53.759Z,54.17
2022-09-03T23:05:32.546Z,53.78
2022-09-03T23:08:23.303Z,54.43
2022-09-03T23:11:05.891Z,55.09
2022-09-03T23:13:41.906Z,54.48
2022-09-03T23:16:28.859Z,54.41
2022-09-03T23:18:57.894Z,54.28
2022-09-03T23:21:40.731Z,54.17
2022-09-03T23:24:21.062Z,54.77
2022-09-03T23:26:52.506Z,54.75
2022-09-03T23:29:27.577Z,54.58
2022-09-03T23:31:59.307Z,54.92
2022-09-03T23:34:26.970Z,55.31
2022-09-03T23:37:35.351Z,55.16
2022-09-03T23:40:24.052Z,55.65
2022-09-03T23:43:02.224Z,55.62
2022-09-03T23:45:50.993Z,56.08
2022-09-03T23:48:51.388Z,55.65
2022-09-03T23:51:30.142Z,55.88
2022-09-03T23:54:11.897Z,55.69
2022-09-03T23:56:55.888Z,56.14
